sensor_id;sensor_type;location;lat;lon;timestamp;temperature;humidity
18950;DHT22;9608;49.288;8.130;2022-07-29T00:02:22;21.90;99.90
18950;DHT22;9608;49.288;8.130;2022-07-29T00:04:50;21.90;99.90
18950;DHT22;9608;49.288;8.130;2022-07-29T00:07:17;21.90;99.90
18950;DHT22;9608;49.288;8.130;2022-07-29T00:09:43;21.90;99.90
18950;DHT22;9608;49.288;8.130;2022-07-29T00:12:10;21.90;99.90
18950;DHT22;9608;49.288;8.130;2022-07-29T00:14:37;21.80;99.90
18950;DHT22;9608;49.288;8.130;2022-07-29T00:17:04;21.80;99.90
18950;DHT22;9608;49.288;8.130;2022-07-29T00:19:31;21.80;99.90
18950;DHT22;9608;49.288;8.130;2022-07-29T00:22:01;21.80;99.90
18950;DHT22;9608;49.288;8.130;2022-07-29T00:24:28;21.80;99.90
18950;DHT22;9608;49.288;8.130;2022-07-29T00:26:54;21.80;99.90
18950;DHT22;9608;49.288;8.130;2022-07-29T00:29:21;21.80;99.90
18950;DHT22;9608;49.288;8.130;2022-07-29T00:31:48;21.70;99.90
18950;DHT22;9608;49.288;8.130;2022-07-29T00:34:15;21.70;99.90
18950;DHT22;9608;49.288;8.130;2022-07-29T00:36:56;21.70;99.90
18950;DHT22;9608;49.288;8.130;2022-07-29T00:39:24;21.60;99.90
18950;DHT22;9608;49.288;8.130;2022-07-29T00:41:51;21.50;99.90
18950;DHT22;9608;49.288;8.130;2022-07-29T00:44:18;21.50;99.90
18950;DHT22;9608;49.288;8.130;2022-07-29T00:46:44;21.40;99.90
18950;DHT22;9608;49.288;8.130;2022-07-29T00:49:12;21.30;99.90
18950;DHT22;9608;49.288;8.130;2022-07-29T00:51:39;21.30;99.90
18950;DHT22;9608;49.288;8.130;2022-07-29T00:54:07;21.30;99.90
18950;DHT22;9608;49.288;8.130;2022-07-29T00:56:35;21.20;99.90
18950;DHT22;9608;49.288;8.130;2022-07-29T00:59:02;21.10;99.90
18950;DHT22;9608;49.288;8.130;2022-07-29T01:01:29;20.80;99.90
18950;DHT22;9608;49.288;8.130;2022-07-29T01:03:56;20.60;99.90
18950;DHT22;9608;49.288;8.130;2022-07-29T01:06:23;20.60;99.90
18950;DHT22;9608;49.288;8.130;2022-07-29T01:08:51;20.50;99.90
18950;DHT22;9608;49.288;8.130;2022-07-29T01:11:18;20.40;99.90
18950;DHT22;9608;49.288;8.130;2022-07-29T01:13:47;20.30;99.90
18950;DHT22;9608;49.288;8.130;2022-07-29T01:16:21;20.10;99.90
18950;DHT22;9608;49.288;8.130;2022-07-29T01:18:50;20.20;99.90
18950;DHT22;9608;49.288;8.130;2022-07-29T01:21:46;20.20;99.90
18950;DHT22;9608;49.288;8.130;2022-07-29T01:24:34;20.30;99.90
18950;DHT22;9608;49.288;8.130;2022-07-29T01:27:16;20.30;99.90
18950;DHT22;9608;49.288;8.130;2022-07-29T01:29:54;20.40;99.90
18950;DHT22;9608;49.288;8.130;2022-07-29T01:32:24;20.50;99.90
18950;DHT22;9608;49.288;8.130;2022-07-29T01:34:54;20.40;99.90
18950;DHT22;9608;49.288;8.130;2022-07-29T01:37:25;20.40;99.90
18950;DHT22;9608;49.288;8.130;2022-07-29T01:39:56;20.30;99.90
18950;DHT22;9608;49.288;8.130;2022-07-29T01:42:29;20.30;99.90
18950;DHT22;9608;49.288;8.130;2022-07-29T01:45:02;20.30;99.90
18950;DHT22;9608;49.288;8.130;2022-07-29T01:47:39;20.20;99.90
18950;DHT22;9608;49.288;8.130;2022-07-29T01:50:10;20.20;99.90
18950;DHT22;9608;49.288;8.130;2022-07-29T01:52:42;20.20;99.90
18950;DHT22;9608;49.288;8.130;2022-07-29T01:55:13;20.10;99.90
18950;DHT22;9608;49.288;8.130;2022-07-29T01:57:44;20.10;99.90
18950;DHT22;9608;49.288;8.130;2022-07-29T02:00:14;20.10;99.90
18950;DHT22;9608;49.288;8.130;2022-07-29T02:02:44;20.10;99.90
18950;DHT22;9608;49.288;8.130;2022-07-29T02:05:15;20.10;99.90
18950;DHT22;9608;49.288;8.130;2022-07-29T02:07:44;20.10;99.90
18950;DHT22;9608;49.288;8.130;2022-07-29T02:10:13;20.10;99.90
18950;DHT22;9608;49.288;8.130;2022-07-29T02:12:42;20.10;99.90
18950;DHT22;9608;49.288;8.130;2022-07-29T02:15:10;20.20;99.90
18950;DHT22;9608;49.288;8.130;2022-07-29T02:17:42;20.20;99.90
18950;DHT22;9608;49.288;8.130;2022-07-29T02:20:11;20.00;99.90
18950;DHT22;9608;49.288;8.130;2022-07-29T02:22:39;20.20;99.90
18950;DHT22;9608;49.288;8.130;2022-07-29T02:25:08;20.20;99.90
18950;DHT22;9608;49.288;8.130;2022-07-29T02:27:37;20.20;99.90
18950;DHT22;9608;49.288;8.130;2022-07-29T02:30:08;20.20;99.90
18950;DHT22;9608;49.288;8.130;2022-07-29T02:32:37;20.10;99.90
18950;DHT22;9608;49.288;8.130;2022-07-29T02:35:07;20.20;99.90
18950;DHT22;9608;49.288;8.130;2022-07-29T02:37:36;20.20;99.90
18950;DHT22;9608;49.288;8.130;2022-07-29T02:40:04;20.20;99.90
18950;DHT22;9608;49.288;8.130;2022-07-29T02:42:33;20.20;99.90
18950;DHT22;9608;49.288;8.130;2022-07-29T02:45:00;20.10;99.90
18950;DHT22;9608;49.288;8.130;2022-07-29T02:47:31;20.00;99.90
18950;DHT22;9608;49.288;8.130;2022-07-29T02:50:07;20.00;99.90
18950;DHT22;9608;49.288;8.130;2022-07-29T02:52:39;20.00;99.90
18950;DHT22;9608;49.288;8.130;2022-07-29T02:55:13;20.00;99.90
18950;DHT22;9608;49.288;8.130;2022-07-29T02:57:43;20.10;99.90
18950;DHT22;9608;49.288;8.130;2022-07-29T03:00:11;20.10;99.90
18950;DHT22;9608;49.288;8.130;2022-07-29T03:02:42;20.10;99.90
18950;DHT22;9608;49.288;8.130;2022-07-29T03:05:15;20.00;99.90
18950;DHT22;9608;49.288;8.130;2022-07-29T03:07:45;20.00;99.90
18950;DHT22;9608;49.288;8.130;2022-07-29T03:10:13;19.90;99.90
18950;DHT22;9608;49.288;8.130;2022-07-29T03:12:41;19.90;99.90
18950;DHT22;9608;49.288;8.130;2022-07-29T03:15:09;19.90;99.90
18950;DHT22;9608;49.288;8.130;2022-07-29T03:17:37;19.90;99.90
18950;DHT22;9608;49.288;8.130;2022-07-29T03:20:06;19.80;99.90
18950;DHT22;9608;49.288;8.130;2022-07-29T03:22:39;19.80;99.90
18950;DHT22;9608;49.288;8.130;2022-07-29T03:25:09;19.80;99.90
18950;DHT22;9608;49.288;8.130;2022-07-29T03:27:36;19.80;99.90
18950;DHT22;9608;49.288;8.130;2022-07-29T03:30:03;19.70;99.90
18950;DHT22;9608;49.288;8.130;2022-07-29T03:32:30;19.50;99.90
18950;DHT22;9608;49.288;8.130;2022-07-29T03:34:57;19.50;99.90
18950;DHT22;9608;49.288;8.130;2022-07-29T03:37:24;19.40;99.90
18950;DHT22;9608;49.288;8.130;2022-07-29T03:39:53;19.40;99.90
18950;DHT22;9608;49.288;8.130;2022-07-29T03:42:24;19.40;99.90
18950;DHT22;9608;49.288;8.130;2022-07-29T03:44:52;19.40;99.90
18950;DHT22;9608;49.288;8.130;2022-07-29T03:47:24;19.40;99.90
18950;DHT22;9608;49.288;8.130;2022-07-29T03:49:54;19.40;99.90
18950;DHT22;9608;49.288;8.130;2022-07-29T03:52:23;19.40;99.90
18950;DHT22;9608;49.288;8.130;2022-07-29T03:54:49;19.30;99.90
18950;DHT22;9608;49.288;8.130;2022-07-29T03:57:18;19.30;99.90
18950;DHT22;9608;49.288;8.130;2022-07-29T03:59:47;19.30;99.90
18950;DHT22;9608;49.288;8.130;2022-07-29T04:02:14;19.40;99.90
18950;DHT22;9608;49.288;8.130;2022-07-29T04:04:41;19.40;99.90
18950;DHT22;9608;49.288;8.130;2022-07-29T04:07:11;19.40;99.90
18950;DHT22;9608;49.288;8.130;2022-07-29T04:09:38;19.30;99.90
18950;DHT22;9608;49.288;8.130;2022-07-29T04:12:05;19.30;99.90
18950;DHT22;9608;49.288;8.130;2022-07-29T04:14:34;19.30;99.90
18950;DHT22;9608;49.288;8.130;2022-07-29T04:17:02;19.40;99.90
18950;DHT22;9608;49.288;8.130;2022-07-29T04:19:29;19.50;99.90
18950;DHT22;9608;49.288;8.130;2022-07-29T04:21:56;19.60;99.90
18950;DHT22;9608;49.288;8.130;2022-07-29T04:24:23;19.80;99.90
18950;DHT22;9608;49.288;8.130;2022-07-29T04:26:50;19.90;99.90
18950;DHT22;9608;49.288;8.130;2022-07-29T04:29:17;20.10;99.90
18950;DHT22;9608;49.288;8.130;2022-07-29T04:31:45;20.30;99.90
18950;DHT22;9608;49.288;8.130;2022-07-29T04:34:12;20.50;99.90
18950;DHT22;9608;49.288;8.130;2022-07-29T04:36:38;20.70;99.90
18950;DHT22;9608;49.288;8.130;2022-07-29T04:39:05;20.90;99.90
18950;DHT22;9608;49.288;8.130;2022-07-29T04:41:32;21.10;99.90
18950;DHT22;9608;49.288;8.130;2022-07-29T04:43:59;21.40;99.90
18950;DHT22;9608;49.288;8.130;2022-07-29T04:46:26;21.60;99.90
18950;DHT22;9608;49.288;8.130;2022-07-29T04:48:54;21.80;99.90
18950;DHT22;9608;49.288;8.130;2022-07-29T04:51:21;22.00;99.90
18950;DHT22;9608;49.288;8.130;2022-07-29T04:53:47;22.10;99.90
18950;DHT22;9608;49.288;8.130;2022-07-29T04:56:14;22.30;99.90
18950;DHT22;9608;49.288;8.130;2022-07-29T04:58:41;22.50;99.90
18950;DHT22;9608;49.288;8.130;2022-07-29T05:01:07;22.70;99.90
18950;DHT22;9608;49.288;8.130;2022-07-29T05:03:34;22.80;99.90
18950;DHT22;9608;49.288;8.130;2022-07-29T05:06:02;22.90;99.90
18950;DHT22;9608;49.288;8.130;2022-07-29T05:08:29;23.10;99.90
18950;DHT22;9608;49.288;8.130;2022-07-29T05:10:56;23.30;99.90
18950;DHT22;9608;49.288;8.130;2022-07-29T05:13:22;23.60;99.90
18950;DHT22;9608;49.288;8.130;2022-07-29T05:15:49;23.80;99.90
18950;DHT22;9608;49.288;8.130;2022-07-29T05:18:16;23.90;99.90
18950;DHT22;9608;49.288;8.130;2022-07-29T05:20:43;24.10;99.90
18950;DHT22;9608;49.288;8.130;2022-07-29T05:23:11;24.10;99.90
18950;DHT22;9608;49.288;8.130;2022-07-29T05:25:40;24.20;99.90
18950;DHT22;9608;49.288;8.130;2022-07-29T05:28:06;24.30;99.90
18950;DHT22;9608;49.288;8.130;2022-07-29T05:30:33;24.40;99.90
18950;DHT22;9608;49.288;8.130;2022-07-29T05:33:00;24.60;99.90
18950;DHT22;9608;49.288;8.130;2022-07-29T05:35:27;24.70;99.90
18950;DHT22;9608;49.288;8.130;2022-07-29T05:37:53;24.80;99.90
18950;DHT22;9608;49.288;8.130;2022-07-29T05:40:21;24.90;99.90
18950;DHT22;9608;49.288;8.130;2022-07-29T05:42:48;24.90;99.90
18950;DHT22;9608;49.288;8.130;2022-07-29T05:45:15;24.90;99.90
18950;DHT22;9608;49.288;8.130;2022-07-29T05:47:42;24.90;99.90
18950;DHT22;9608;49.288;8.130;2022-07-29T05:50:09;24.70;99.90
18950;DHT22;9608;49.288;8.130;2022-07-29T05:52:35;24.70;99.90
18950;DHT22;9608;49.288;8.130;2022-07-29T05:55:02;24.40;99.90
18950;DHT22;9608;49.288;8.130;2022-07-29T05:57:32;24.30;99.90
18950;DHT22;9608;49.288;8.130;2022-07-29T05:59:59;24.20;99.90
18950;DHT22;9608;49.288;8.130;2022-07-29T06:02:26;24.20;99.90
18950;DHT22;9608;49.288;8.130;2022-07-29T06:04:52;24.00;99.90
18950;DHT22;9608;49.288;8.130;2022-07-29T06:07:19;23.90;99.90
18950;DHT22;9608;49.288;8.130;2022-07-29T06:09:46;23.60;99.90
18950;DHT22;9608;49.288;8.130;2022-07-29T06:12:12;23.70;99.90
18950;DHT22;9608;49.288;8.130;2022-07-29T06:14:41;24.20;99.90
18950;DHT22;9608;49.288;8.130;2022-07-29T06:17:07;24.60;99.90
18950;DHT22;9608;49.288;8.130;2022-07-29T06:19:37;24.60;99.90
18950;DHT22;9608;49.288;8.130;2022-07-29T06:22:04;24.60;99.90
18950;DHT22;9608;49.288;8.130;2022-07-29T06:24:30;24.50;99.90
18950;DHT22;9608;49.288;8.130;2022-07-29T06:26:57;24.30;99.90
18950;DHT22;9608;49.288;8.130;2022-07-29T06:29:24;24.30;99.90
18950;DHT22;9608;49.288;8.130;2022-07-29T06:31:52;24.10;99.90
18950;DHT22;9608;49.288;8.130;2022-07-29T06:34:19;24.40;99.90
18950;DHT22;9608;49.288;8.130;2022-07-29T06:36:46;24.60;99.90
18950;DHT22;9608;49.288;8.130;2022-07-29T06:39:12;24.80;99.90
18950;DHT22;9608;49.288;8.130;2022-07-29T06:41:39;24.80;99.90
18950;DHT22;9608;49.288;8.130;2022-07-29T06:44:06;24.90;99.90
18950;DHT22;9608;49.288;8.130;2022-07-29T06:46:33;25.00;99.90
18950;DHT22;9608;49.288;8.130;2022-07-29T06:49:01;25.00;99.90
18950;DHT22;9608;49.288;8.130;2022-07-29T06:51:27;25.20;99.90
18950;DHT22;9608;49.288;8.130;2022-07-29T06:53:54;25.40;99.90
18950;DHT22;9608;49.288;8.130;2022-07-29T06:56:22;25.40;99.90
18950;DHT22;9608;49.288;8.130;2022-07-29T06:58:49;25.60;99.90
18950;DHT22;9608;49.288;8.130;2022-07-29T07:01:16;25.60;99.90
18950;DHT22;9608;49.288;8.130;2022-07-29T07:03:42;25.80;99.90
18950;DHT22;9608;49.288;8.130;2022-07-29T07:06:11;25.50;99.90
18950;DHT22;9608;49.288;8.130;2022-07-29T07:08:38;25.50;99.90
18950;DHT22;9608;49.288;8.130;2022-07-29T07:11:04;25.80;99.90
18950;DHT22;9608;49.288;8.130;2022-07-29T07:13:32;26.30;99.90
18950;DHT22;9608;49.288;8.130;2022-07-29T07:16:00;26.30;99.90
18950;DHT22;9608;49.288;8.130;2022-07-29T07:18:27;26.30;99.90
18950;DHT22;9608;49.288;8.130;2022-07-29T07:20:54;26.50;99.90
18950;DHT22;9608;49.288;8.130;2022-07-29T07:23:22;26.60;99.90
18950;DHT22;9608;49.288;8.130;2022-07-29T07:25:48;26.40;99.90
18950;DHT22;9608;49.288;8.130;2022-07-29T07:28:15;26.20;99.90
18950;DHT22;9608;49.288;8.130;2022-07-29T07:30:42;25.80;99.90
18950;DHT22;9608;49.288;8.130;2022-07-29T07:33:09;25.90;99.90
18950;DHT22;9608;49.288;8.130;2022-07-29T07:35:35;25.80;99.90
18950;DHT22;9608;49.288;8.130;2022-07-29T07:38:02;25.90;99.90
18950;DHT22;9608;49.288;8.130;2022-07-29T07:40:32;25.90;99.90
18950;DHT22;9608;49.288;8.130;2022-07-29T07:42:59;25.90;99.90
18950;DHT22;9608;49.288;8.130;2022-07-29T07:45:27;26.00;99.90
18950;DHT22;9608;49.288;8.130;2022-07-29T07:47:54;25.80;99.90
18950;DHT22;9608;49.288;8.130;2022-07-29T07:50:20;25.50;99.90
18950;DHT22;9608;49.288;8.130;2022-07-29T07:52:49;25.70;99.90
18950;DHT22;9608;49.288;8.130;2022-07-29T07:55:16;25.90;99.90
18950;DHT22;9608;49.288;8.130;2022-07-29T07:57:45;26.10;99.90
18950;DHT22;9608;49.288;8.130;2022-07-29T08:00:13;26.30;99.90
18950;DHT22;9608;49.288;8.130;2022-07-29T08:02:40;26.60;99.90
18950;DHT22;9608;49.288;8.130;2022-07-29T08:05:09;27.10;99.90
18950;DHT22;9608;49.288;8.130;2022-07-29T08:07:36;27.40;99.90
18950;DHT22;9608;49.288;8.130;2022-07-29T08:10:03;27.60;99.90
18950;DHT22;9608;49.288;8.130;2022-07-29T08:12:30;27.90;99.90
18950;DHT22;9608;49.288;8.130;2022-07-29T08:14:58;28.10;99.90
18950;DHT22;9608;49.288;8.130;2022-07-29T08:17:25;28.20;99.90
18950;DHT22;9608;49.288;8.130;2022-07-29T08:19:52;28.20;99.90
18950;DHT22;9608;49.288;8.130;2022-07-29T08:22:19;28.30;99.90
18950;DHT22;9608;49.288;8.130;2022-07-29T08:24:46;28.50;99.90
18950;DHT22;9608;49.288;8.130;2022-07-29T08:27:19;28.70;99.90
18950;DHT22;9608;49.288;8.130;2022-07-29T08:29:46;29.00;99.90
18950;DHT22;9608;49.288;8.130;2022-07-29T08:32:15;28.90;99.90
18950;DHT22;9608;49.288;8.130;2022-07-29T08:34:41;29.00;99.90
18950;DHT22;9608;49.288;8.130;2022-07-29T08:37:11;29.10;99.90
18950;DHT22;9608;49.288;8.130;2022-07-29T08:39:38;29.10;99.90
18950;DHT22;9608;49.288;8.130;2022-07-29T08:42:05;29.00;99.90
18950;DHT22;9608;49.288;8.130;2022-07-29T08:44:33;28.60;99.90
18950;DHT22;9608;49.288;8.130;2022-07-29T08:47:00;28.50;99.90
18950;DHT22;9608;49.288;8.130;2022-07-29T08:49:28;28.70;99.90
18950;DHT22;9608;49.288;8.130;2022-07-29T08:51:55;28.50;99.90
18950;DHT22;9608;49.288;8.130;2022-07-29T08:54:23;28.10;99.90
18950;DHT22;9608;49.288;8.130;2022-07-29T08:56:51;28.30;99.90
18950;DHT22;9608;49.288;8.130;2022-07-29T08:59:19;28.40;99.90
18950;DHT22;9608;49.288;8.130;2022-07-29T09:01:46;28.20;99.90
18950;DHT22;9608;49.288;8.130;2022-07-29T09:04:14;28.30;99.90
18950;DHT22;9608;49.288;8.130;2022-07-29T09:06:45;28.40;99.90
18950;DHT22;9608;49.288;8.130;2022-07-29T09:09:13;28.60;99.90
18950;DHT22;9608;49.288;8.130;2022-07-29T09:11:40;28.40;99.90
18950;DHT22;9608;49.288;8.130;2022-07-29T09:14:07;28.30;99.90
18950;DHT22;9608;49.288;8.130;2022-07-29T09:16:51;28.50;99.90
18950;DHT22;9608;49.288;8.130;2022-07-29T09:19:24;28.80;99.90
18950;DHT22;9608;49.288;8.130;2022-07-29T09:21:53;28.90;99.90
18950;DHT22;9608;49.288;8.130;2022-07-29T09:24:24;28.80;99.90
18950;DHT22;9608;49.288;8.130;2022-07-29T09:26:51;28.70;99.90
18950;DHT22;9608;49.288;8.130;2022-07-29T09:29:19;28.90;99.90
18950;DHT22;9608;49.288;8.130;2022-07-29T09:31:48;29.00;99.90
18950;DHT22;9608;49.288;8.130;2022-07-29T09:34:16;29.20;99.90
18950;DHT22;9608;49.288;8.130;2022-07-29T09:36:45;29.30;99.90
18950;DHT22;9608;49.288;8.130;2022-07-29T09:39:13;29.60;99.90
18950;DHT22;9608;49.288;8.130;2022-07-29T09:41:45;29.50;99.80
18950;DHT22;9608;49.288;8.130;2022-07-29T09:44:12;29.60;99.50
18950;DHT22;9608;49.288;8.130;2022-07-29T09:46:40;29.60;99.50
18950;DHT22;9608;49.288;8.130;2022-07-29T09:49:09;29.80;99.50
18950;DHT22;9608;49.288;8.130;2022-07-29T09:51:36;30.10;99.10
18950;DHT22;9608;49.288;8.130;2022-07-29T09:54:22;30.20;99.00
18950;DHT22;9608;49.288;8.130;2022-07-29T09:56:50;30.20;98.90
18950;DHT22;9608;49.288;8.130;2022-07-29T09:59:16;29.90;99.00
18950;DHT22;9608;49.288;8.130;2022-07-29T10:01:43;29.90;99.80
18950;DHT22;9608;49.288;8.130;2022-07-29T10:04:10;29.80;99.70
18950;DHT22;9608;49.288;8.130;2022-07-29T10:06:55;29.40;99.90
18950;DHT22;9608;49.288;8.130;2022-07-29T10:09:24;29.40;99.90
18950;DHT22;9608;49.288;8.130;2022-07-29T10:12:06;29.50;99.80
18950;DHT22;9608;49.288;8.130;2022-07-29T10:14:35;29.60;99.50
18950;DHT22;9608;49.288;8.130;2022-07-29T10:17:02;29.80;99.40
18950;DHT22;9608;49.288;8.130;2022-07-29T10:19:30;29.90;99.10
18950;DHT22;9608;49.288;8.130;2022-07-29T10:22:12;30.00;99.80
18950;DHT22;9608;49.288;8.130;2022-07-29T10:24:40;30.30;99.50
18950;DHT22;9608;49.288;8.130;2022-07-29T10:27:08;30.40;98.60
18950;DHT22;9608;49.288;8.130;2022-07-29T10:29:35;30.50;99.20
18950;DHT22;9608;49.288;8.130;2022-07-29T10:32:18;30.60;97.90
18950;DHT22;9608;49.288;8.130;2022-07-29T10:34:57;30.80;98.60
18950;DHT22;9608;49.288;8.130;2022-07-29T10:37:36;30.80;97.90
18950;DHT22;9608;49.288;8.130;2022-07-29T10:40:14;31.10;97.80
18950;DHT22;9608;49.288;8.130;2022-07-29T10:43:07;31.40;96.70
18950;DHT22;9608;49.288;8.130;2022-07-29T10:45:41;31.40;96.60
18950;DHT22;9608;49.288;8.130;2022-07-29T10:48:08;30.70;96.90
18950;DHT22;9608;49.288;8.130;2022-07-29T10:50:53;30.70;97.40
18950;DHT22;9608;49.288;8.130;2022-07-29T10:53:20;31.10;97.10
18950;DHT22;9608;49.288;8.130;2022-07-29T10:55:49;30.80;96.10
18950;DHT22;9608;49.288;8.130;2022-07-29T10:58:18;31.20;96.10
18950;DHT22;9608;49.288;8.130;2022-07-29T11:00:47;31.70;96.80
18950;DHT22;9608;49.288;8.130;2022-07-29T11:03:43;32.10;95.80
18950;DHT22;9608;49.288;8.130;2022-07-29T11:06:11;32.00;94.90
18950;DHT22;9608;49.288;8.130;2022-07-29T11:08:38;32.00;94.90
18950;DHT22;9608;49.288;8.130;2022-07-29T11:11:36;32.00;94.20
18950;DHT22;9608;49.288;8.130;2022-07-29T11:14:06;32.10;94.20
18950;DHT22;9608;49.288;8.130;2022-07-29T11:16:57;32.40;93.60
18950;DHT22;9608;49.288;8.130;2022-07-29T11:19:24;32.40;93.60
18950;DHT22;9608;49.288;8.130;2022-07-29T11:21:51;32.50;93.00
18950;DHT22;9608;49.288;8.130;2022-07-29T11:24:20;32.20;93.50
18950;DHT22;9608;49.288;8.130;2022-07-29T11:27:12;32.20;93.20
18950;DHT22;9608;49.288;8.130;2022-07-29T11:29:48;32.30;93.20
18950;DHT22;9608;49.288;8.130;2022-07-29T11:32:16;32.50;92.50
18950;DHT22;9608;49.288;8.130;2022-07-29T11:34:45;32.50;92.10
18950;DHT22;9608;49.288;8.130;2022-07-29T11:37:21;32.10;92.40
18950;DHT22;9608;49.288;8.130;2022-07-29T11:40:07;32.00;92.70
18950;DHT22;9608;49.288;8.130;2022-07-29T11:42:50;31.70;92.70
18950;DHT22;9608;49.288;8.130;2022-07-29T11:45:22;31.50;91.90
18950;DHT22;9608;49.288;8.130;2022-07-29T11:47:56;31.30;92.80
18950;DHT22;9608;49.288;8.130;2022-07-29T11:50:33;31.00;93.00
18950;DHT22;9608;49.288;8.130;2022-07-29T11:53:00;30.80;92.70
18950;DHT22;9608;49.288;8.130;2022-07-29T11:55:27;30.50;92.90
18950;DHT22;9608;49.288;8.130;2022-07-29T11:57:59;30.20;93.20
18950;DHT22;9608;49.288;8.130;2022-07-29T12:00:29;30.10;92.90
18950;DHT22;9608;49.288;8.130;2022-07-29T12:02:57;30.00;92.20
18950;DHT22;9608;49.288;8.130;2022-07-29T12:05:45;30.00;91.50
18950;DHT22;9608;49.288;8.130;2022-07-29T12:08:13;29.90;91.80
18950;DHT22;9608;49.288;8.130;2022-07-29T12:10:42;29.90;91.20
18950;DHT22;9608;49.288;8.130;2022-07-29T12:13:10;29.90;90.70
18950;DHT22;9608;49.288;8.130;2022-07-29T12:15:37;29.80;90.80
18950;DHT22;9608;49.288;8.130;2022-07-29T12:18:12;29.80;90.80
18950;DHT22;9608;49.288;8.130;2022-07-29T12:20:39;29.50;90.70
18950;DHT22;9608;49.288;8.130;2022-07-29T12:23:07;29.40;91.00
18950;DHT22;9608;49.288;8.130;2022-07-29T12:25:37;29.30;91.10
18950;DHT22;9608;49.288;8.130;2022-07-29T12:28:06;29.50;91.50
18950;DHT22;9608;49.288;8.130;2022-07-29T12:30:40;29.90;91.20
18950;DHT22;9608;49.288;8.130;2022-07-29T12:33:18;30.10;90.60
18950;DHT22;9608;49.288;8.130;2022-07-29T12:35:48;30.50;90.40
18950;DHT22;9608;49.288;8.130;2022-07-29T12:38:16;31.10;90.40
18950;DHT22;9608;49.288;8.130;2022-07-29T12:40:43;31.40;89.00
18950;DHT22;9608;49.288;8.130;2022-07-29T12:43:12;31.60;89.50
18950;DHT22;9608;49.288;8.130;2022-07-29T12:45:45;31.70;88.50
18950;DHT22;9608;49.288;8.130;2022-07-29T12:48:12;32.10;90.00
18950;DHT22;9608;49.288;8.130;2022-07-29T12:50:56;32.60;86.40
18950;DHT22;9608;49.288;8.130;2022-07-29T12:53:24;33.00;84.50
18950;DHT22;9608;49.288;8.130;2022-07-29T12:55:52;33.20;84.40
18950;DHT22;9608;49.288;8.130;2022-07-29T12:58:28;33.10;84.70
18950;DHT22;9608;49.288;8.130;2022-07-29T13:01:08;32.60;86.50
18950;DHT22;9608;49.288;8.130;2022-07-29T13:03:47;32.60;85.70
18950;DHT22;9608;49.288;8.130;2022-07-29T13:06:28;32.70;83.70
18950;DHT22;9608;49.288;8.130;2022-07-29T13:09:03;32.70;84.10
18950;DHT22;9608;49.288;8.130;2022-07-29T13:11:31;32.80;86.40
18950;DHT22;9608;49.288;8.130;2022-07-29T13:13:58;32.80;83.80
18950;DHT22;9608;49.288;8.130;2022-07-29T13:16:26;32.80;83.60
18950;DHT22;9608;49.288;8.130;2022-07-29T13:19:10;32.60;81.80
18950;DHT22;9608;49.288;8.130;2022-07-29T13:21:38;31.80;84.10
18950;DHT22;9608;49.288;8.130;2022-07-29T13:24:06;31.40;84.30
18950;DHT22;9608;49.288;8.130;2022-07-29T13:26:34;31.20;83.90
18950;DHT22;9608;49.288;8.130;2022-07-29T13:29:02;31.00;81.50
18950;DHT22;9608;49.288;8.130;2022-07-29T13:31:30;30.80;80.90
18950;DHT22;9608;49.288;8.130;2022-07-29T13:33:57;30.50;81.60
18950;DHT22;9608;49.288;8.130;2022-07-29T13:36:24;30.30;81.20
18950;DHT22;9608;49.288;8.130;2022-07-29T13:38:50;30.00;81.40
18950;DHT22;9608;49.288;8.130;2022-07-29T13:41:17;30.20;82.30
18950;DHT22;9608;49.288;8.130;2022-07-29T13:43:44;30.00;82.00
18950;DHT22;9608;49.288;8.130;2022-07-29T13:46:11;29.80;82.60
18950;DHT22;9608;49.288;8.130;2022-07-29T13:48:39;29.60;83.00
18950;DHT22;9608;49.288;8.130;2022-07-29T13:51:06;29.50;83.10
18950;DHT22;9608;49.288;8.130;2022-07-29T13:53:32;29.70;83.40
18950;DHT22;9608;49.288;8.130;2022-07-29T13:55:59;30.00;83.60
18950;DHT22;9608;49.288;8.130;2022-07-29T13:58:26;30.20;82.70
18950;DHT22;9608;49.288;8.130;2022-07-29T14:00:53;30.40;82.10
18950;DHT22;9608;49.288;8.130;2022-07-29T14:03:19;30.80;80.70
18950;DHT22;9608;49.288;8.130;2022-07-29T14:05:48;30.60;80.40
18950;DHT22;9608;49.288;8.130;2022-07-29T14:08:14;30.60;80.50
18950;DHT22;9608;49.288;8.130;2022-07-29T14:10:41;30.90;80.10
18950;DHT22;9608;49.288;8.130;2022-07-29T14:13:08;31.20;79.00
18950;DHT22;9608;49.288;8.130;2022-07-29T14:15:35;30.90;79.00
18950;DHT22;9608;49.288;8.130;2022-07-29T14:18:02;31.20;79.00
18950;DHT22;9608;49.288;8.130;2022-07-29T14:20:29;31.40;77.20
18950;DHT22;9608;49.288;8.130;2022-07-29T14:22:57;31.60;76.40
18950;DHT22;9608;49.288;8.130;2022-07-29T14:25:24;31.70;76.80
18950;DHT22;9608;49.288;8.130;2022-07-29T14:27:50;31.50;76.80
18950;DHT22;9608;49.288;8.130;2022-07-29T14:30:18;31.50;77.20
18950;DHT22;9608;49.288;8.130;2022-07-29T14:32:45;31.20;76.10
18950;DHT22;9608;49.288;8.130;2022-07-29T14:35:13;31.00;76.70
18950;DHT22;9608;49.288;8.130;2022-07-29T14:37:40;31.10;76.00
18950;DHT22;9608;49.288;8.130;2022-07-29T14:40:09;30.90;74.80
18950;DHT22;9608;49.288;8.130;2022-07-29T14:42:36;31.20;75.00
18950;DHT22;9608;49.288;8.130;2022-07-29T14:45:04;31.20;74.10
18950;DHT22;9608;49.288;8.130;2022-07-29T14:47:31;31.10;74.20
18950;DHT22;9608;49.288;8.130;2022-07-29T14:49:57;30.90;73.40
18950;DHT22;9608;49.288;8.130;2022-07-29T14:52:24;31.00;73.20
18950;DHT22;9608;49.288;8.130;2022-07-29T14:54:51;30.80;73.10
18950;DHT22;9608;49.288;8.130;2022-07-29T14:57:19;30.40;73.60
18950;DHT22;9608;49.288;8.130;2022-07-29T14:59:46;30.40;74.00
18950;DHT22;9608;49.288;8.130;2022-07-29T15:02:13;30.70;73.10
18950;DHT22;9608;49.288;8.130;2022-07-29T15:04:43;31.00;72.40
18950;DHT22;9608;49.288;8.130;2022-07-29T15:07:11;31.10;72.80
18950;DHT22;9608;49.288;8.130;2022-07-29T15:09:38;30.80;72.70
18950;DHT22;9608;49.288;8.130;2022-07-29T15:12:05;30.20;73.60
18950;DHT22;9608;49.288;8.130;2022-07-29T15:14:33;30.00;74.60
18950;DHT22;9608;49.288;8.130;2022-07-29T15:17:00;30.10;74.10
18950;DHT22;9608;49.288;8.130;2022-07-29T15:19:27;30.00;74.10
18950;DHT22;9608;49.288;8.130;2022-07-29T15:21:53;30.10;75.60
18950;DHT22;9608;49.288;8.130;2022-07-29T15:24:20;30.20;74.10
18950;DHT22;9608;49.288;8.130;2022-07-29T15:26:47;30.00;73.10
18950;DHT22;9608;49.288;8.130;2022-07-29T15:29:14;29.90;73.00
18950;DHT22;9608;49.288;8.130;2022-07-29T15:31:43;29.90;73.60
18950;DHT22;9608;49.288;8.130;2022-07-29T15:34:09;30.20;71.80
18950;DHT22;9608;49.288;8.130;2022-07-29T15:36:36;30.60;71.20
18950;DHT22;9608;49.288;8.130;2022-07-29T15:39:03;30.50;69.60
18950;DHT22;9608;49.288;8.130;2022-07-29T15:41:30;30.40;69.90
18950;DHT22;9608;49.288;8.130;2022-07-29T15:43:56;30.40;70.20
18950;DHT22;9608;49.288;8.130;2022-07-29T15:46:23;30.60;70.70
18950;DHT22;9608;49.288;8.130;2022-07-29T15:49:08;30.80;69.70
18950;DHT22;9608;49.288;8.130;2022-07-29T15:51:34;30.80;69.10
18950;DHT22;9608;49.288;8.130;2022-07-29T15:54:02;30.70;69.70
18950;DHT22;9608;49.288;8.130;2022-07-29T15:56:29;30.90;70.50
18950;DHT22;9608;49.288;8.130;2022-07-29T15:58:56;30.80;69.80